Terminal Aerodrome Forecast
Issued by NWS

Home | Current Version | Previous Version | Text Only | Print | Product List | Glossary On
Versions: 1 2 3 4 5 6 7 8 9 10 11 12 13
000
FTUS44 KEPZ 251700
TAFLRU
TAF
KLRU 251720Z 2518/2618 28005KT P6SM SKC
     FM252000 22008KT P6SM FEW250
     FM260500 27004KT P6SM FEW250
     FM261400 05004KT P6SM FEW250=

USA.gov is the U.S. government's official web portal to all federal, state and local government web resources and services.